createdAt,value
2019-04-04T11:41:29.239Z,6.00
2019-04-04T11:43:57.540Z,6.43
2019-04-04T11:46:26.150Z,5.80
2019-04-04T11:48:54.454Z,5.53
2019-04-04T11:51:22.895Z,7.77
2019-04-04T11:53:52.936Z,7.87
2019-04-04T11:56:21.259Z,9.47
2019-04-04T11:58:49.575Z,6.63
2019-04-04T12:01:19.371Z,6.77
2019-04-04T12:03:50.224Z,6.13
2019-04-04T12:06:18.694Z,7.67
2019-04-04T12:08:46.975Z,9.57
2019-04-04T12:11:15.398Z,7.67
2019-04-04T12:13:43.773Z,12.17
2019-04-04T12:16:12.103Z,10.07
2019-04-04T12:18:40.399Z,14.77
2019-04-04T12:21:08.757Z,12.13
2019-04-04T12:23:37.118Z,11.57
2019-04-04T12:26:05.578Z,7.23
2019-04-04T12:28:33.875Z,9.13
2019-04-04T12:31:02.727Z,8.13
2019-04-04T12:33:31.097Z,6.30
2019-04-04T12:35:59.439Z,6.60
2019-04-04T12:38:27.767Z,7.00
2019-04-04T12:40:56.250Z,8.43
2019-04-04T12:43:24.598Z,5.67
2019-04-04T12:45:53.767Z,7.00
2019-04-04T12:48:22.148Z,7.80
2019-04-04T12:50:50.546Z,7.10
2019-04-04T12:53:18.868Z,6.33
2019-04-04T12:55:47.526Z,6.53
2019-04-04T12:58:16.023Z,6.67
2019-04-04T13:00:44.402Z,5.30
2019-04-04T13:03:12.738Z,6.17
2019-04-04T13:05:41.371Z,4.40
2019-04-04T13:08:09.719Z,4.37
2019-04-04T13:10:38.144Z,3.93
2019-04-04T13:13:06.456Z,3.10
2019-04-04T13:15:34.935Z,4.63
2019-04-04T13:18:03.275Z,4.03
2019-04-04T13:20:31.664Z,4.27
2019-04-04T13:23:00.264Z,3.57
2019-04-04T13:25:28.637Z,3.57
2019-04-04T13:27:57.129Z,3.40
2019-04-04T13:30:25.658Z,5.40
2019-04-04T13:32:55.704Z,3.23
2019-04-04T13:35:24.024Z,3.27
2019-04-04T13:37:52.429Z,4.30
2019-04-04T13:40:20.822Z,3.47
2019-04-04T13:42:52.736Z,2.90
2019-04-04T13:45:19.401Z,3.50
2019-04-04T13:47:47.870Z,3.20
2019-04-04T13:50:19.707Z,3.10
2019-04-04T13:52:46.825Z,3.03
2019-04-04T13:55:15.282Z,4.53
2019-04-04T13:57:45.380Z,3.33
2019-04-04T14:00:14.340Z,2.73
2019-04-04T14:02:42.832Z,3.33
2019-04-04T14:05:14.318Z,3.70
2019-04-04T14:07:43.694Z,3.13
2019-04-04T14:10:12.004Z,3.20
2019-04-04T14:12:40.313Z,4.53
2019-04-04T14:15:10.878Z,2.80
2019-04-04T14:17:39.256Z,2.97
2019-04-04T14:20:11.069Z,2.43
2019-04-04T14:22:39.497Z,3.37
2019-04-04T14:25:09.174Z,4.60
2019-04-04T14:27:37.621Z,3.27
2019-04-04T14:30:09.689Z,2.53
2019-04-04T14:32:38.377Z,2.97
2019-04-04T14:35:08.722Z,3.20
2019-04-04T14:37:37.662Z,3.10
2019-04-04T14:40:07.164Z,3.30
2019-04-04T14:42:36.643Z,3.40
2019-04-04T14:45:08.015Z,3.30
2019-04-04T14:47:38.127Z,3.27
2019-04-04T14:50:08.791Z,6.40
2019-04-04T14:52:39.488Z,3.17
2019-04-04T14:55:08.825Z,2.63
2019-04-04T14:57:37.308Z,2.60
2019-04-04T15:00:15.750Z,4.67
2019-04-04T15:02:45.514Z,10.20
2019-04-04T15:05:14.223Z,8.90
2019-04-04T15:07:42.726Z,28.07
2019-04-04T15:10:11.298Z,29.07
2019-04-04T15:12:40.418Z,4.27
2019-04-04T15:15:09.544Z,25.83
2019-04-04T15:17:38.356Z,25.93
2019-04-04T15:20:08.052Z,34.90
2019-04-04T15:22:37.861Z,3.90
2019-04-04T15:25:09.377Z,4.50
2019-04-04T15:27:38.141Z,3.90
2019-04-04T15:30:09.468Z,3.47
2019-04-04T15:32:38.636Z,3.07
2019-04-04T15:35:07.455Z,2.37
2019-04-04T15:37:37.654Z,3.33
2019-04-04T15:40:07.365Z,3.20
2019-04-04T15:42:36.191Z,2.13
2019-04-04T15:45:06.352Z,2.30
2019-04-04T15:47:35.050Z,3.17
2019-04-04T15:50:04.809Z,2.93
2019-04-04T15:52:33.328Z,6.27
2019-04-04T15:55:01.808Z,3.63
2019-04-04T15:57:30.391Z,3.83
2019-04-04T15:59:58.988Z,2.83
2019-04-04T16:02:29.290Z,3.00
2019-04-04T16:04:57.911Z,2.20
2019-04-04T16:07:26.320Z,1.90
2019-04-04T16:09:54.828Z,1.90
2019-04-04T16:12:23.133Z,1.77
2019-04-04T16:15:18.554Z,2.10
2019-04-04T16:20:33.427Z,2.30
2019-04-04T16:23:01.910Z,2.07
2019-04-04T16:25:30.451Z,2.70
2019-04-04T16:28:17.244Z,4.33
2019-04-04T16:30:45.748Z,1.80
2019-04-04T16:33:14.357Z,2.40
2019-04-04T16:35:42.849Z,4.53
2019-04-04T16:38:17.334Z,6.13
2019-04-04T16:40:47.543Z,2.67
2019-04-04T16:43:20.292Z,2.53
2019-04-04T16:45:50.472Z,7.20
2019-04-04T16:48:20.416Z,7.83
2019-04-04T16:50:50.846Z,23.97
2019-04-04T16:53:20.858Z,6.10
2019-04-04T16:55:51.369Z,6.37
2019-04-04T16:58:21.263Z,3.10
2019-04-04T17:00:53.189Z,1.70
2019-04-04T17:03:23.204Z,1.90
2019-04-04T17:05:53.360Z,1.73
2019-04-04T17:08:24.826Z,1.70
2019-04-04T17:10:55.224Z,4.10
2019-04-04T17:13:26.309Z,1.80
2019-04-04T17:15:57.231Z,2.03
2019-04-04T17:18:27.353Z,6.97
2019-04-04T17:21:18.338Z,6.80
2019-04-04T17:23:48.447Z,1.77
2019-04-04T17:26:18.642Z,2.40
2019-04-04T17:31:35.610Z,5.53
2019-04-04T17:34:18.028Z,3.00
2019-04-04T17:36:47.978Z,3.17
2019-04-04T17:39:18.012Z,2.70
2019-04-04T17:41:50.160Z,3.30
2019-04-04T17:44:20.296Z,2.43
2019-04-04T17:46:50.713Z,2.03
2019-04-04T17:49:20.613Z,2.27
2019-04-04T17:51:51.829Z,1.20
2019-04-04T17:54:23.523Z,5.30
2019-04-04T17:56:53.891Z,3.63
2019-04-04T17:59:23.900Z,1.50
2019-04-04T18:01:54.154Z,1.27
2019-04-04T18:04:24.074Z,1.40
2019-04-04T18:06:54.195Z,2.13
2019-04-04T18:09:31.748Z,1.60
2019-04-04T18:11:56.179Z,2.23
2019-04-04T18:14:25.981Z,1.97
2019-04-04T18:16:56.801Z,1.80
2019-04-04T18:19:25.200Z,2.07
2019-04-04T18:21:53.640Z,2.27
2019-04-04T18:24:21.998Z,3.67
2019-04-04T18:26:50.489Z,3.27
2019-04-04T18:29:18.814Z,2.33
2019-04-04T18:31:47.315Z,1.70
2019-04-04T18:34:15.761Z,1.67
2019-04-04T18:36:44.093Z,1.63
2019-04-04T18:39:12.488Z,1.77
2019-04-04T18:41:40.940Z,1.87
2019-04-04T18:44:09.391Z,1.47
2019-04-04T18:46:37.975Z,1.47
2019-04-04T18:49:06.456Z,1.60
2019-04-04T18:51:37.606Z,2.23
2019-04-04T18:54:05.103Z,1.63
2019-04-04T18:56:36.378Z,1.60
2019-04-04T18:59:04.955Z,2.37
2019-04-04T19:01:33.382Z,1.93
2019-04-04T19:04:01.811Z,2.50
2019-04-04T19:06:30.252Z,7.27
2019-04-04T19:08:58.595Z,7.20
2019-04-04T19:11:26.992Z,7.07
2019-04-04T19:13:55.407Z,11.00
2019-04-04T19:16:24.189Z,11.17
2019-04-04T19:18:52.578Z,9.30
2019-04-04T19:21:21.063Z,7.93
2019-04-04T19:23:49.775Z,6.93
2019-04-04T19:26:18.261Z,12.30
2019-04-04T19:28:46.671Z,10.30
2019-04-04T19:31:15.419Z,6.47
2019-04-04T19:33:43.892Z,4.10
2019-04-04T19:36:12.514Z,2.33
2019-04-04T19:38:40.868Z,3.10
2019-04-04T19:41:09.262Z,12.63
2019-04-04T19:43:37.662Z,4.60
2019-04-04T19:46:06.061Z,5.57
2019-04-04T19:48:34.350Z,3.70
2019-04-04T19:51:02.869Z,3.47
2019-04-04T19:53:31.162Z,3.17
2019-04-04T19:55:59.569Z,4.10
2019-04-04T19:58:27.889Z,2.93
2019-04-04T20:00:56.434Z,3.00
2019-04-04T20:03:24.779Z,3.20
2019-04-04T20:05:53.179Z,2.30
2019-04-04T20:08:21.536Z,3.33
2019-04-04T20:10:49.935Z,3.07
2019-04-04T20:13:29.998Z,4.17
2019-04-04T20:15:48.375Z,4.20
2019-04-04T20:39:01.396Z,3.20
2019-04-04T20:41:29.838Z,4.73
2019-04-04T20:43:58.212Z,2.63
2019-04-04T20:46:26.578Z,3.00
2019-04-04T20:48:54.933Z,2.90
2019-04-04T20:51:23.225Z,3.63
2019-04-04T20:53:51.664Z,4.90
2019-04-04T20:56:20.102Z,4.60
2019-04-04T20:58:48.501Z,5.80
2019-04-04T21:01:16.820Z,5.17
2019-04-04T21:03:45.209Z,3.93
2019-04-04T21:06:13.619Z,4.00
2019-04-04T21:08:42.043Z,5.70
2019-04-04T21:11:10.407Z,4.80
2019-04-04T21:13:38.732Z,4.37
2019-04-04T21:16:07.154Z,6.43
2019-04-04T21:18:35.555Z,5.33
2019-04-04T21:21:03.984Z,5.30
2019-04-04T21:23:32.427Z,4.87
2019-04-04T21:26:00.800Z,5.20
2019-04-04T21:28:29.130Z,5.03
2019-04-04T21:30:57.507Z,5.30
2019-04-04T21:33:25.839Z,6.53
2019-04-04T21:35:54.181Z,6.60
2019-04-04T21:38:22.460Z,5.67
2019-04-04T21:40:50.924Z,5.83
2019-04-04T21:43:19.374Z,6.97
2019-04-04T21:45:47.645Z,6.43
2019-04-04T21:48:15.926Z,8.13
2019-04-04T21:50:44.258Z,5.10
2019-04-04T21:53:12.536Z,8.00
2019-04-04T21:55:40.883Z,7.23
2019-04-04T21:58:09.176Z,6.77
2019-04-04T22:00:39.235Z,6.70
2019-04-04T22:03:07.594Z,7.73
2019-04-04T22:05:36.069Z,7.07
2019-04-04T22:08:04.356Z,9.10
2019-04-04T22:10:32.821Z,9.07
2019-04-04T22:13:01.195Z,7.10
2019-04-04T22:15:29.678Z,8.10
2019-04-04T22:17:58.019Z,7.03
2019-04-04T22:20:26.359Z,10.40
2019-04-04T22:22:54.799Z,8.97
2019-04-04T22:25:23.135Z,10.47
2019-04-04T22:27:51.448Z,9.37
2019-04-04T22:30:19.811Z,7.70
2019-04-04T22:32:48.198Z,8.97
2019-04-04T22:35:16.631Z,8.67
2019-04-04T22:37:45.000Z,8.23
2019-04-04T22:40:13.397Z,12.13
2019-04-04T22:42:41.715Z,9.67
2019-04-04T22:45:10.137Z,10.13
2019-04-04T22:47:39.316Z,9.83
2019-04-04T22:50:07.882Z,8.93
2019-04-04T22:52:36.202Z,8.77
2019-04-04T22:55:04.626Z,11.30
2019-04-04T22:57:32.939Z,9.80
2019-04-04T23:00:01.307Z,12.23
2019-04-04T23:02:29.752Z,8.90
2019-04-04T23:04:58.144Z,10.60
2019-04-04T23:07:26.459Z,10.40
2019-04-04T23:09:54.857Z,9.37
2019-04-04T23:12:23.260Z,11.93
2019-04-04T23:14:51.635Z,10.33
2019-04-04T23:17:20.054Z,11.53
2019-04-04T23:19:48.341Z,11.50
2019-04-04T23:22:16.676Z,14.80
2019-04-04T23:24:45.049Z,10.50
2019-04-04T23:27:13.346Z,10.37
2019-04-04T23:29:42.707Z,10.57
2019-04-04T23:32:11.186Z,10.77
2019-04-04T23:34:39.574Z,11.33
2019-04-04T23:37:08.045Z,10.50
2019-04-04T23:39:36.432Z,11.10
2019-04-04T23:42:04.923Z,13.30
2019-04-04T23:44:33.316Z,11.03
2019-04-04T23:47:01.561Z,10.40
2019-04-04T23:49:30.100Z,11.07
2019-04-04T23:51:58.426Z,9.10
2019-04-04T23:54:26.741Z,10.90
2019-04-04T23:56:55.159Z,10.20
2019-04-04T23:59:23.478Z,9.53
